Time;durP1;ratioP1;P1;durP2;ratioP2;P2;SDS_P1;SDS_P2;PMS_P1;PMS_P2;Temp;Humidity;BMP_temperature;BMP_pressure;BME280_temperature;BME280_humidity;BME280_pressure;Samples;Min_cycle;Max_cycle;Signal;HPM_P1;HPM_P2
2023/06/23 00:01:17;;;;;;;2.20;2.10;;;20.50;99.90;;;20.94;75.43;101885.84;4708868;30;20053;-67
2023/06/23 00:03:47;;;;;;;2.38;2.28;;;20.50;99.90;;;20.98;75.58;101887.50;4725898;30;20499;-66
2023/06/23 00:06:17;;;;;;;2.50;2.40;;;20.60;99.90;;;20.97;75.39;101889.31;4723549;30;20057;-67
2023/06/23 00:08:47;;;;;;;2.45;2.35;;;20.60;99.90;;;20.96;75.68;101887.56;4716567;30;20045;-66
2023/06/23 00:11:15;;;;;;;2.63;2.53;;;20.60;99.90;;;21.00;75.73;101885.66;4716270;30;20063;-67
2023/06/23 00:13:44;;;;;;;2.45;2.35;;;20.60;99.90;;;21.01;75.94;101892.81;4716313;30;20053;-68
2023/06/23 00:16:12;;;;;;;2.40;2.30;;;20.60;99.90;;;20.93;76.19;101892.13;4717978;30;20072;-67
2023/06/23 00:18:41;;;;;;;2.53;2.42;;;20.50;99.90;;;20.86;76.67;101894.16;4709243;30;20061;-66
2023/06/23 00:21:12;;;;;;;3.10;3.00;;;20.40;99.90;;;20.88;76.82;101891.41;4727488;30;20084;-67
2023/06/23 00:23:40;;;;;;;2.60;2.50;;;20.50;99.90;;;20.76;77.31;101887.28;4727221;30;20089;-67
2023/06/23 00:26:08;;;;;;;2.78;2.67;;;20.30;99.90;;;20.57;78.55;101881.59;4729373;30;20110;-67
2023/06/23 00:28:37;;;;;;;2.53;2.42;;;20.20;99.90;;;20.48;79.55;101886.31;4726854;30;20122;-67
2023/06/23 00:31:08;;;;;;;2.53;2.42;;;20.00;99.90;;;20.34;80.76;101878.63;4703789;30;20053;-66
2023/06/23 00:33:36;;;;;;;2.20;2.10;;;19.90;99.90;;;20.32;81.48;101885.91;4719290;30;20075;-67
2023/06/23 00:36:05;;;;;;;2.50;2.40;;;19.90;99.90;;;20.32;82.03;101887.69;4719331;30;20103;-67
2023/06/23 00:38:35;;;;;;;2.65;2.55;;;19.80;99.90;;;20.27;83.69;101886.94;4722575;30;20052;-67
2023/06/23 00:41:04;;;;;;;2.55;2.45;;;19.80;99.90;;;20.18;84.52;101879.09;4710732;30;20632;-67
2023/06/23 00:43:32;;;;;;;2.47;2.38;;;19.80;99.90;;;20.20;85.58;101882.66;4728445;30;20053;-68
2023/06/23 00:46:12;;;;;;;2.58;2.47;;;19.70;99.90;;;20.20;85.96;101886.25;4718270;30;20535;-67
2023/06/23 00:48:41;;;;;;;2.63;2.53;;;19.70;99.90;;;19.99;87.33;101850.97;4711242;30;20064;-67
2023/06/23 00:51:10;;;;;;;4.07;3.75;;;19.70;99.90;;;20.04;89.92;101882.16;4728075;30;20092;-67
2023/06/23 00:53:39;;;;;;;3.85;3.65;;;19.60;99.90;;;19.94;92.11;101888.69;4727563;30;20051;-67
2023/06/23 00:56:08;;;;;;;2.72;2.63;;;19.50;99.90;;;19.97;93.33;101896.69;4718615;30;20114;-67
2023/06/23 00:58:38;;;;;;;3.15;2.95;;;19.50;99.90;;;19.95;93.68;101869.00;4728348;30;20127;-67
2023/06/23 01:01:08;;;;;;;2.70;2.60;;;19.50;99.90;;;20.09;93.76;101899.03;4710493;30;20057;-67
2023/06/23 01:03:36;;;;;;;4.15;3.95;;;19.60;99.90;;;20.08;94.26;101902.66;4725888;30;20119;-67
2023/06/23 01:06:17;;;;;;;2.50;2.40;;;19.60;99.90;;;20.07;94.69;101906.28;4710302;30;20148;-67
2023/06/23 01:09:00;;;;;;;3.53;3.38;;;19.50;99.90;;;20.02;95.61;101902.81;4717719;30;20057;-67
2023/06/23 01:11:35;;;;;;;3.10;3.00;;;19.60;99.90;;;19.89;96.36;101901.38;4726475;30;20095;-66
2023/06/23 01:14:13;;;;;;;5.07;4.18;;;19.50;99.90;;;19.96;96.66;101911.03;4727266;30;20408;-68
2023/06/23 01:16:49;;;;;;;3.53;3.33;;;19.50;99.90;;;19.88;96.72;101898.75;4729204;30;20087;-67
2023/06/23 01:19:34;;;;;;;2.88;2.78;;;19.40;99.90;;;19.88;97.23;101913.03;4726836;30;20103;-67
2023/06/23 01:22:14;;;;;;;2.80;2.70;;;19.40;99.90;;;19.94;97.07;101918.25;4725677;30;20496;-67
2023/06/23 01:25:00;;;;;;;3.10;3.00;;;19.50;99.90;;;20.01;96.08;101922.56;4711546;30;20416;-67
2023/06/23 01:27:58;;;;;;;2.88;2.78;;;19.50;99.90;;;20.01;96.01;101927.94;4718632;30;20061;-67
2023/06/23 01:30:32;;;;;;;2.90;2.80;;;19.50;99.90;;;19.96;96.95;101935.19;4726258;30;20061;-67
2023/06/23 01:33:16;;;;;;;2.80;2.70;;;19.50;99.90;;;20.02;96.96;101934.16;4726158;30;20052;-67
2023/06/23 01:35:53;;;;;;;3.15;3.05;;;19.50;99.90;;;20.04;97.25;101940.38;4726226;30;20049;-67
2023/06/23 01:38:27;;;;;;;2.65;2.55;;;19.50;99.90;;;20.13;96.76;101940.16;4726861;30;20542;-67
2023/06/23 01:40:59;;;;;;;3.58;3.28;;;19.60;99.90;;;20.02;97.09;101936.84;4726957;30;20053;-67
2023/06/23 01:43:32;;;;;;;2.72;2.63;;;19.50;99.90;;;20.01;97.08;101935.97;4702715;30;20125;-67
2023/06/23 01:46:09;;;;;;;3.28;3.17;;;19.60;99.90;;;20.07;96.84;101940.31;4718465;30;20202;-67
2023/06/23 01:48:42;;;;;;;6.03;5.57;;;19.60;99.90;;;19.29;97.25;101834.00;4709496;30;20064;-67
2023/06/23 01:51:12;;;;;;;3.13;3.03;;;19.50;99.90;;;19.81;98.13;101957.09;4725090;30;20401;-68
2023/06/23 01:53:43;;;;;;;3.22;3.03;;;19.40;99.90;;;19.83;98.27;101955.25;4725323;30;20084;-67
2023/06/23 01:56:11;;;;;;;;;;;19.40;99.90;;;19.78;99.09;101954.50;4728111;30;20114;-67
2023/06/23 01:58:44;;;;;;;3.42;3.33;;;19.30;99.90;;;19.89;98.82;101952.41;4722660;30;19940;-68
2023/06/23 02:01:15;;;;;;;4.35;4.00;;;19.40;99.90;;;19.91;98.32;101955.94;4725852;30;20566;-67
2023/06/23 02:03:43;;;;;;;;;;;19.40;99.90;;;19.73;98.71;101961.75;4710300;30;20049;-67
2023/06/23 02:06:14;;;;;;;3.22;3.10;;;19.30;99.90;;;19.50;99.38;101934.59;4728008;30;19980;-67
2023/06/23 02:08:44;;;;;;;3.53;3.33;;;19.20;99.90;;;19.83;99.52;101968.69;4716831;30;20056;-67
2023/06/23 02:11:14;;;;;;;3.00;2.90;;;19.30;99.90;;;19.82;98.82;101971.41;4717891;30;20058;-67
2023/06/23 02:13:44;;;;;;;5.13;4.15;;;19.30;99.90;;;19.63;98.58;101946.78;4702078;30;20065;-67
2023/06/23 02:16:15;;;;;;;2.60;2.50;;;19.40;99.90;;;19.84;98.53;101977.63;4718381;30;20096;-67
2023/06/23 02:18:44;;;;;;;2.85;2.75;;;19.40;99.90;;;19.90;98.58;101981.00;4724404;30;20057;-67
2023/06/23 02:21:15;;;;;;;2.92;2.83;;;19.40;99.90;;;19.93;98.12;101988.13;4709465;30;20570;-67
2023/06/23 02:23:43;;;;;;;;;;;19.50;99.90;;;19.91;97.78;101988.16;4728317;30;20542;-67
2023/06/23 02:26:14;;;;;;;3.13;3.03;;;19.40;99.90;;;19.80;97.78;101988.41;4712376;30;19926;-67
2023/06/23 02:28:47;;;;;;;3.25;3.15;;;19.40;99.90;;;19.82;98.57;101995.56;4725211;30;20060;-67
2023/06/23 02:31:18;;;;;;;2.83;2.72;;;19.30;99.90;;;19.82;98.29;102000.94;4726237;30;20064;-67
2023/06/23 02:33:47;;;;;;;2.42;2.33;;;19.30;99.90;;;19.89;98.45;101997.19;4725708;30;20057;-67
2023/06/23 02:36:20;;;;;;;3.05;2.95;;;19.40;99.90;;;19.95;97.41;102003.28;4725045;30;20109;-67
2023/06/23 02:38:50;;;;;;;2.35;2.25;;;19.50;99.90;;;19.95;97.05;102003.28;4724832;30;20377;-66
2023/06/23 02:41:20;;;;;;;6.97;3.90;;;19.50;99.90;;;19.93;95.89;102013.19;4726699;30;20499;-67
2023/06/23 02:43:54;;;;;;;2.72;2.63;;;19.50;99.90;;;19.93;95.34;102006.94;4709575;30;20583;-68
2023/06/23 02:46:30;;;;;;;3.05;2.95;;;19.50;99.90;;;19.92;94.78;102013.25;4725517;30;20133;-68
2023/06/23 02:49:06;;;;;;;2.83;2.72;;;19.50;99.90;;;19.75;94.40;101984.97;4717160;30;20122;-66
2023/06/23 02:51:38;;;;;;;2.50;2.40;;;19.40;99.90;;;19.93;93.74;102007.81;4725381;30;20084;-67
2023/06/23 02:54:11;;;;;;;3.53;3.33;;;19.50;99.90;;;19.43;93.36;101927.63;4725692;30;20048;-67
2023/06/23 02:56:43;;;;;;;2.55;2.45;;;19.50;99.90;;;19.90;93.10;102010.56;4725767;30;20080;-69
2023/06/23 02:59:15;;;;;;;2.40;2.30;;;19.50;99.90;;;19.90;93.06;102009.72;4716047;30;20065;-66
2023/06/23 03:01:52;;;;;;;2.70;2.60;;;19.50;99.90;;;19.88;92.74;102009.72;4715809;30;20057;-68
2023/06/23 03:04:22;;;;;;;2.80;2.70;;;19.40;99.90;;;19.89;92.95;102006.13;4716976;30;20056;-67
2023/06/23 03:06:52;;;;;;;2.88;2.78;;;19.50;99.90;;;19.92;92.74;102007.88;4721114;30;20164;-69
2023/06/23 03:09:21;;;;;;;2.58;2.47;;;19.40;99.90;;;19.91;92.60;102012.34;4727214;30;20055;-67
2023/06/23 03:11:49;;;;;;;3.13;2.97;;;19.40;99.90;;;19.77;92.29;101985.81;4716771;30;20468;-67
2023/06/23 03:14:17;;;;;;;2.63;2.53;;;19.40;99.90;;;19.89;92.19;102006.13;4716884;30;20057;-66
2023/06/23 03:16:51;;;;;;;2.40;2.30;;;19.40;99.90;;;19.83;92.13;102011.66;4701108;30;20068;-67
2023/06/23 03:19:29;;;;;;;4.03;3.67;;;19.40;99.90;;;19.80;92.02;102023.34;4718471;30;20053;-67
2023/06/23 03:22:05;;;;;;;2.75;2.65;;;19.40;99.90;;;19.78;92.10;102014.44;4708531;30;20065;-67
2023/06/23 03:24:38;;;;;;;2.40;2.30;;;19.30;99.90;;;19.79;92.33;102023.38;4716924;30;20057;-67
2023/06/23 03:27:10;;;;;;;2.50;2.40;;;19.30;99.90;;;19.79;92.25;102031.44;4708053;30;20084;-67
2023/06/23 03:29:44;;;;;;;2.55;2.45;;;19.30;99.90;;;19.75;92.35;102029.75;4710537;30;20056;-67
2023/06/23 03:32:22;;;;;;;2.40;2.30;;;19.30;99.90;;;19.75;92.22;102024.38;4716799;30;20052;-66
2023/06/23 03:34:59;;;;;;;2.72;2.63;;;19.30;99.90;;;19.66;92.76;102033.53;4716769;30;20127;-67
2023/06/23 03:37:28;;;;;;;2.53;2.42;;;19.20;99.90;;;19.68;94.17;102036.19;4700901;30;20057;-67
2023/06/23 03:40:04;;;;;;;2.65;2.55;;;19.20;99.90;;;19.71;95.09;102044.16;4719546;30;20557;-68
2023/06/23 03:42:35;;;;;;;3.03;2.92;;;19.20;99.90;;;19.51;96.05;102038.38;4724406;30;20127;-67
2023/06/23 03:45:06;;;;;;;4.15;3.85;;;19.10;99.90;;;18.95;96.52;101931.38;4725449;30;20057;-67
2023/06/23 03:47:37;;;;;;;2.58;2.47;;;19.10;99.90;;;19.52;96.70;102048.19;4725867;30;20059;-67
2023/06/23 03:50:11;;;;;;;4.85;4.55;;;19.10;99.90;;;19.49;97.33;102053.63;4724442;30;20471;-67
2023/06/23 03:52:43;;;;;;;4.50;4.18;;;19.00;99.90;;;19.46;97.99;102054.56;4723989;30;20061;-67
2023/06/23 03:55:14;;;;;;;4.50;3.58;;;19.00;99.90;;;19.51;98.17;102058.03;4727373;30;20184;-67
2023/06/23 03:57:44;;;;;;;3.00;2.90;;;19.10;99.90;;;19.31;99.27;102064.72;4728975;30;20056;-67
2023/06/23 04:00:14;;;;;;;2.63;2.53;;;18.90;99.90;;;18.55;100.00;101947.41;4728130;30;20099;-67
2023/06/23 04:02:45;;;;;;;3.03;2.92;;;18.80;99.90;;;19.14;100.00;102073.13;4729761;30;20061;-67
2023/06/23 04:05:16;;;;;;;2.70;2.60;;;18.70;99.90;;;18.50;100.00;101974.31;4730422;30;20131;-67
2023/06/23 04:07:46;;;;;;;2.80;2.70;;;18.70;99.90;;;19.05;100.00;102080.47;4727357;30;20060;-67
2023/06/23 04:10:16;;;;;;;;;;;18.60;99.90;;;19.33;100.00;102073.66;4729552;30;20048;-67
2023/06/23 04:12:48;;;;;;;3.33;3.23;;;18.80;99.90;;;19.58;100.00;102083.84;4728553;30;19933;-67
2023/06/23 04:15:18;;;;;;;3.00;2.90;;;19.10;99.90;;;19.73;100.00;102087.97;4712012;30;20052;-67
2023/06/23 04:17:52;;;;;;;3.33;3.17;;;19.30;99.90;;;19.80;100.00;102079.72;4729533;30;20135;-68
2023/06/23 04:20:21;;;;;;;3.13;2.95;;;19.40;99.90;;;19.97;100.00;102086.53;4727065;30;20468;-68
2023/06/23 04:22:51;;;;;;;4.50;4.23;;;19.60;99.90;;;19.89;99.68;102084.00;4729225;30;20107;-67
2023/06/23 04:25:21;;;;;;;4.65;4.45;;;19.70;99.90;;;19.83;100.00;102088.63;4727777;30;20053;-67
2023/06/23 04:27:53;;;;;;;3.53;3.38;;;19.60;99.90;;;20.02;100.00;102095.34;4728043;30;20052;-68
2023/06/23 04:30:24;;;;;;;2.95;2.85;;;19.60;99.90;;;20.13;100.00;102096.00;4711461;30;20053;-67
2023/06/23 04:32:54;;;;;;;6.07;5.65;;;19.80;99.90;;;20.13;100.00;102096.00;4729541;30;20415;-67
2023/06/23 04:35:22;;;;;;;3.35;3.25;;;19.80;99.90;;;19.96;100.00;102091.00;4719336;30;20061;-67
2023/06/23 04:38:00;;;;;;;2.85;2.75;;;19.60;99.90;;;20.04;100.00;102096.19;4719408;30;20459;-68
2023/06/23 04:40:36;;;;;;;2.63;2.53;;;19.70;99.90;;;20.20;99.61;102101.22;4719246;30;20049;-66
2023/06/23 04:43:12;;;;;;;2.65;2.55;;;19.80;99.90;;;20.20;99.54;102101.22;4710776;30;20133;-67
2023/06/23 04:45:47;;;;;;;3.13;2.92;;;19.90;99.90;;;20.27;99.38;102101.94;4727399;30;20053;-67
2023/06/23 04:48:24;;;;;;;4.65;4.15;;;19.90;99.90;;;20.04;99.50;102088.13;4727447;30;20071;-67
2023/06/23 04:50:57;;;;;;;4.22;3.10;;;19.80;99.90;;;19.76;100.00;102087.91;4726122;30;20045;-66
2023/06/23 04:53:34;;;;;;;4.18;3.85;;;19.50;99.90;;;19.95;100.00;102094.63;4728717;30;20060;-67
2023/06/23 04:56:07;;;;;;;3.47;3.28;;;19.60;99.90;;;19.89;100.00;102091.19;4728249;30;20053;-67
2023/06/23 04:58:39;;;;;;;7.53;5.88;;;19.50;99.90;;;19.68;100.00;102092.56;4726303;30;20061;-67
2023/06/23 05:01:11;;;;;;;4.55;4.15;;;19.40;99.90;;;19.55;100.00;102091.06;4726536;30;20087;-67
2023/06/23 05:03:42;;;;;;;2.88;2.78;;;19.20;99.90;;;19.68;100.00;102100.63;4728115;30;20053;-67
2023/06/23 05:06:12;;;;;;;3.40;3.08;;;19.30;99.90;;;19.70;100.00;102110.38;4726999;30;20057;-66
2023/06/23 05:08:42;;;;;;;3.47;3.28;;;19.30;99.90;;;19.86;100.00;102118.13;4725645;30;20056;-67
2023/06/23 05:11:13;;;;;;;4.15;3.65;;;19.40;99.90;;;19.78;100.00;102116.47;4728607;30;20478;-67
2023/06/23 05:13:44;;;;;;;3.05;2.95;;;19.40;99.90;;;19.62;100.00;102100.75;4718734;30;20067;-66
2023/06/23 05:16:15;;;;;;;5.30;4.43;;;19.30;99.90;;;19.84;100.00;102118.13;4726281;30;20057;-67
2023/06/23 05:18:47;;;;;;;3.67;3.45;;;19.40;99.90;;;19.99;100.00;102117.81;4728087;30;20466;-67
2023/06/23 05:21:22;;;;;;;3.55;3.35;;;19.60;99.90;;;19.90;100.00;102120.69;4727651;30;20057;-68
2023/06/23 05:23:54;;;;;;;3.28;3.08;;;19.60;99.90;;;19.94;100.00;102119.69;4725871;30;20060;-67
2023/06/23 05:26:24;;;;;;;5.15;4.57;;;19.60;99.90;;;19.91;100.00;102126.94;4725833;30;20115;-67
2023/06/23 05:28:55;;;;;;;5.72;5.22;;;19.60;99.90;;;19.88;100.00;102119.84;4712325;30;20061;-68
2023/06/23 05:31:28;;;;;;;16.58;7.00;;;19.60;99.90;;;19.86;100.00;102128.88;4727141;30;20061;-67
2023/06/23 05:34:00;;;;;;;3.35;3.15;;;19.50;99.90;;;20.05;100.00;102131.09;4726566;30;20468;-67
2023/06/23 05:36:32;;;;;;;3.80;3.55;;;19.70;99.90;;;20.12;99.04;102138.09;4728497;30;20069;-67
2023/06/23 05:39:01;;;;;;;6.20;4.80;;;19.80;99.90;;;20.33;98.75;102131.34;4725489;30;20041;-67
2023/06/23 05:41:29;;;;;;;2.78;2.67;;;20.00;99.90;;;20.44;98.47;102135.53;4727808;30;20118;-67
2023/06/23 05:43:57;;;;;;;2.60;2.50;;;20.10;99.90;;;20.61;98.03;102136.00;4710595;30;20079;-67
2023/06/23 05:46:29;;;;;;;2.67;2.58;;;20.30;99.90;;;20.65;97.35;102126.91;4727195;30;20065;-67
2023/06/23 05:49:06;;;;;;;2.85;2.75;;;20.50;99.90;;;20.96;96.55;102139.59;4727304;30;20124;-67
2023/06/23 05:51:35;;;;;;;4.53;4.07;;;20.70;99.90;;;21.04;95.52;102151.91;4725112;30;20115;-67
2023/06/23 05:54:12;;;;;;;4.32;4.03;;;20.80;99.90;;;20.64;94.83;102145.78;4725322;30;20048;-67
2023/06/23 05:56:46;;;;;;;3.47;3.28;;;20.50;99.90;;;20.88;95.01;102130.81;4726758;30;20667;-67
2023/06/23 05:59:25;;;;;;;2.70;2.60;;;20.70;99.90;;;21.19;93.72;102143.47;4726698;30;20118;-68
2023/06/23 06:02:00;;;;;;;2.70;2.60;;;20.90;99.90;;;21.35;92.90;102149.28;4725598;30;20061;-67
2023/06/23 06:04:33;;;;;;;2.60;2.50;;;21.10;99.90;;;21.51;91.80;102154.19;4726157;30;20053;-67
2023/06/23 06:07:03;;;;;;;2.63;2.53;;;21.20;99.90;;;21.07;90.63;102054.97;4727676;30;20049;-67
2023/06/23 06:09:33;;;;;;;3.20;3.10;;;21.40;99.90;;;21.70;88.14;102159.03;4724958;30;20049;-67
2023/06/23 06:12:05;;;;;;;3.45;3.33;;;21.40;99.90;;;21.59;88.42;102164.72;4725284;30;20060;-67
2023/06/23 06:14:34;;;;;;;3.08;2.97;;;21.30;99.90;;;21.66;88.08;102170.81;4727070;30;20080;-67
2023/06/23 06:17:04;;;;;;;2.50;2.40;;;21.30;99.90;;;21.84;88.45;102167.59;4726642;30;20068;-67
2023/06/23 06:19:35;;;;;;;2.90;2.80;;;21.50;99.90;;;21.88;88.08;102145.03;4725800;30;20067;-67
2023/06/23 06:22:06;;;;;;;2.50;2.40;;;21.70;99.90;;;22.12;86.17;102177.50;4727206;30;20057;-68
2023/06/23 06:24:36;;;;;;;2.63;2.53;;;21.90;99.90;;;22.25;84.54;102178.88;4724542;30;20443;-67
2023/06/23 06:27:09;;;;;;;2.40;2.30;;;21.90;99.90;;;22.39;83.79;102179.34;4724889;30;20122;-67
2023/06/23 06:29:40;;;;;;;4.53;4.28;;;22.10;99.90;;;22.55;83.20;102174.28;4726707;30;20123;-67
2023/06/23 06:32:10;;;;;;;2.50;2.40;;;22.30;99.90;;;22.68;82.08;102177.50;4726126;30;20053;-67
2023/06/23 06:34:43;;;;;;;2.42;2.33;;;22.40;99.90;;;22.86;80.92;102188.56;4725591;30;20059;-67
2023/06/23 06:37:12;;;;;;;3.25;3.15;;;22.60;99.90;;;22.82;79.80;102183.34;4727501;30;20083;-67
2023/06/23 06:39:41;;;;;;;2.55;2.45;;;22.60;99.90;;;22.98;80.00;102195.34;4717241;30;20563;-67
2023/06/23 06:42:10;;;;;;;2.83;2.72;;;22.70;99.90;;;23.07;79.51;102201.31;4717004;30;20069;-67
2023/06/23 06:44:39;;;;;;;2.47;2.38;;;22.80;99.90;;;23.08;78.73;102186.00;4701445;30;20068;-67
2023/06/23 06:47:10;;;;;;;2.45;2.35;;;22.90;99.90;;;23.21;78.25;102203.53;4717341;30;20059;-67
2023/06/23 06:49:41;;;;;;;2.45;2.35;;;22.90;99.90;;;22.78;77.38;102112.41;4725647;30;20057;-67
2023/06/23 06:52:10;;;;;;;2.30;2.20;;;23.00;99.90;;;23.41;76.26;102216.38;4726794;30;20495;-67
2023/06/23 06:54:40;;;;;;;2.45;2.35;;;23.10;99.90;;;23.45;75.82;102213.50;4724587;30;20049;-68
2023/06/23 06:57:09;;;;;;;2.42;2.33;;;23.20;99.90;;;23.51;74.46;102215.09;4724333;30;20095;-68
2023/06/23 06:59:39;;;;;;;;;;;23.30;99.90;;;23.56;73.92;102219.41;4725049;30;20154;-68
2023/06/23 07:02:09;;;;;;;2.60;2.50;;;23.30;99.90;;;23.53;73.66;102210.53;4726297;30;19973;-67
2023/06/23 07:04:40;;;;;;;2.72;2.63;;;23.40;99.90;;;23.67;73.54;102230.72;4709860;30;20089;-68
2023/06/23 07:07:08;;;;;;;2.63;2.53;;;23.50;99.90;;;23.71;74.88;102237.75;4724171;30;20454;-67
2023/06/23 07:09:37;;;;;;;1.90;1.83;;;23.50;99.90;;;23.81;75.50;102235.59;4726232;30;21009;-68
2023/06/23 07:12:09;;;;;;;3.55;3.25;;;23.60;99.90;;;23.74;74.59;102220.53;4724514;30;20140;-68
2023/06/23 07:14:37;;;;;;;2.33;2.22;;;23.60;99.90;;;23.67;73.85;102240.63;4723757;30;20057;-68
2023/06/23 07:17:06;;;;;;;2.65;2.55;;;23.40;99.90;;;23.56;73.58;102249.13;4726909;30;20052;-68
2023/06/23 07:19:36;;;;;;;2.10;2.00;;;23.40;99.90;;;23.73;73.27;102249.38;4724401;30;20061;-68
2023/06/23 07:22:07;;;;;;;2.78;2.67;;;23.50;99.90;;;23.76;73.99;102251.09;4724872;30;20070;-68
2023/06/23 07:24:35;;;;;;;2.25;2.15;;;23.50;99.90;;;23.92;74.47;102253.19;4725523;30;20496;-67
2023/06/23 07:27:05;;;;;;;2.60;2.50;;;23.70;99.90;;;24.07;75.01;102260.75;4724964;30;20105;-67
2023/06/23 07:29:33;;;;;;;2.33;2.23;;;23.80;99.90;;;24.14;72.86;102259.56;4725602;30;20080;-67
2023/06/23 07:32:02;;;;;;;3.13;2.92;;;23.90;99.90;;;24.12;72.60;102261.44;4715320;30;20091;-67
2023/06/23 07:34:30;;;;;;;2.40;2.30;;;23.90;99.90;;;24.06;73.01;102263.53;4726937;30;20464;-67
2023/06/23 07:36:59;;;;;;;2.60;2.50;;;23.90;99.90;;;24.05;73.95;102259.03;4726884;30;20045;-67
2023/06/23 07:39:28;;;;;;;2.78;2.58;;;23.90;99.90;;;23.82;73.75;102256.28;4723909;30;20076;-67
2023/06/23 07:41:57;;;;;;;3.38;3.13;;;23.60;99.90;;;24.04;74.03;102260.84;4725989;30;20060;-67
2023/06/23 07:44:25;;;;;;;2.10;2.00;;;23.80;99.90;;;23.77;75.41;102260.97;4724751;30;20085;-67
2023/06/23 07:46:54;;;;;;;3.75;2.95;;;23.60;99.90;;;23.78;75.21;102260.91;4716742;30;20072;-68
2023/06/23 07:49:22;;;;;;;3.22;3.05;;;23.50;99.90;;;23.63;75.27;102260.59;4725478;30;20056;-68
2023/06/23 07:51:51;;;;;;;2.08;1.98;;;23.40;99.90;;;23.65;76.27;102265.00;4708908;30;20825;-67
2023/06/23 07:54:19;;;;;;;2.65;2.55;;;23.30;99.90;;;23.42;77.82;102256.84;4725985;30;20052;-68
2023/06/23 07:56:49;;;;;;;2.60;2.50;;;23.10;99.90;;;23.44;78.16;102265.75;4723931;30;20478;-68
2023/06/23 07:59:18;;;;;;;3.57;3.37;;;23.10;99.90;;;23.35;77.65;102262.50;4726762;30;20565;-67
2023/06/23 08:01:46;;;;;;;2.53;2.42;;;23.00;99.90;;;23.35;77.75;102267.91;4723892;30;20654;-67
2023/06/23 08:04:14;;;;;;;3.58;3.33;;;23.10;99.90;;;23.28;77.51;102269.91;4726254;30;20068;-67
2023/06/23 08:06:43;;;;;;;5.70;3.53;;;23.00;99.90;;;22.94;77.63;102267.47;4724369;30;20057;-68
2023/06/23 08:09:12;;;;;;;2.58;2.47;;;22.80;99.90;;;22.95;79.05;102271.94;4725368;30;20507;-68
2023/06/23 08:11:40;;;;;;;3.15;2.95;;;22.60;99.90;;;23.11;77.95;102283.13;4724955;30;20061;-68
2023/06/23 08:14:10;;;;;;;2.75;2.65;;;22.80;99.90;;;23.19;79.34;102287.31;4724751;30;20049;-67
2023/06/23 08:16:39;;;;;;;3.08;2.97;;;22.90;99.90;;;23.04;77.61;102289.63;4708182;30;20064;-68
2023/06/23 08:19:07;;;;;;;4.30;4.00;;;22.80;99.90;;;23.06;77.00;102290.47;4726039;30;20048;-68
2023/06/23 08:21:36;;;;;;;3.03;2.92;;;22.80;99.90;;;22.88;77.77;102286.56;4723359;30;20061;-67
2023/06/23 08:24:05;;;;;;;5.40;4.93;;;22.60;99.90;;;22.79;78.13;102280.56;4716245;30;20049;-67
2023/06/23 08:26:34;;;;;;;2.58;2.47;;;22.60;99.90;;;22.52;80.58;102278.72;4716281;30;20065;-68
2023/06/23 08:29:02;;;;;;;2.72;2.63;;;22.30;99.90;;;22.39;81.23;102279.13;4716182;30;20056;-68
2023/06/23 08:31:32;;;;;;;3.53;3.33;;;22.10;99.90;;;22.61;78.78;102278.47;4719649;30;20049;-68
2023/06/23 08:34:00;;;;;;;3.60;3.40;;;22.30;99.90;;;22.50;80.20;102273.38;4723505;30;20164;-67
2023/06/23 08:36:29;;;;;;;3.10;3.00;;;22.20;99.90;;;22.74;78.31;102282.56;4725038;30;20056;-68
2023/06/23 08:38:57;;;;;;;4.07;3.78;;;22.40;99.90;;;23.07;78.42;102289.56;4725337;30;20388;-67
2023/06/23 08:41:28;;;;;;;2.40;2.30;;;22.70;99.90;;;23.20;77.42;102282.78;4709375;30;20068;-67
2023/06/23 08:44:01;;;;;;;2.67;2.58;;;22.90;99.90;;;23.06;77.23;102287.75;4729413;30;20059;-68
2023/06/23 08:46:32;;;;;;;2.53;2.42;;;22.80;99.90;;;23.20;76.04;102286.38;4726674;30;20049;-68
2023/06/23 08:49:23;;;;;;;2.65;2.55;;;22.90;99.90;;;23.36;75.95;102275.97;4726141;30;20045;-67
2023/06/23 08:51:53;;;;;;;2.50;2.40;;;23.10;99.90;;;23.71;74.94;102285.53;4726861;30;20064;-67
2023/06/23 08:54:21;;;;;;;3.40;3.20;;;23.40;99.90;;;23.76;71.39;102278.13;4728234;30;20514;-68
2023/06/23 08:56:50;;;;;;;2.33;2.22;;;23.60;99.90;;;23.83;69.11;102266.13;4727429;30;20045;-67
2023/06/23 08:59:19;;;;;;;2.45;2.35;;;23.70;99.90;;;24.29;68.67;102295.09;4727513;30;20049;-68
2023/06/23 09:01:48;;;;;;;2.58;2.47;;;24.10;99.90;;;24.56;67.76;102307.53;4728109;30;20056;-68
2023/06/23 09:04:17;;;;;;;3.33;3.13;;;24.30;99.90;;;24.54;68.41;102310.31;4717613;30;20519;-68
2023/06/23 09:06:45;;;;;;;2.28;2.17;;;24.30;99.90;;;24.90;68.54;102313.41;4729245;30;20056;-67
2023/06/23 09:09:14;;;;;;;2.30;2.20;;;24.60;99.90;;;25.13;68.61;102316.03;4718609;30;20091;-67
2023/06/23 09:11:43;;;;;;;2.33;2.22;;;24.80;99.90;;;24.81;65.53;102322.78;4718521;30;20053;-67
2023/06/23 09:14:12;;;;;;;2.17;2.08;;;24.60;99.90;;;24.83;65.44;102301.06;4703167;30;20138;-68
2023/06/23 09:16:40;;;;;;;2.42;2.33;;;24.70;99.90;;;25.21;66.64;102321.13;4722429;30;20600;-68
2023/06/23 09:19:12;;;;;;;2.05;1.95;;;24.90;99.90;;;25.13;65.12;102318.75;4727105;30;20079;-67
2023/06/23 09:21:42;;;;;;;3.67;3.38;;;24.90;99.90;;;25.32;65.10;102324.28;4726836;30;20048;-68
2023/06/23 09:24:11;;;;;;;2.08;1.98;;;25.00;99.90;;;25.44;64.77;102327.38;4728591;30;20477;-68
2023/06/23 09:26:49;;;;;;;1.73;1.73;;;25.20;99.90;;;25.61;63.82;102327.53;4726257;30;20089;-68
2023/06/23 09:29:20;;;;;;;2.08;1.98;;;25.40;99.90;;;25.67;63.42;102338.09;4726707;30;20073;-68
2023/06/23 09:31:51;;;;;;;2.35;2.25;;;25.40;99.90;;;25.70;62.56;102329.84;4727280;30;20052;-68
2023/06/23 09:34:27;;;;;;;2.00;1.90;;;25.40;99.90;;;25.87;60.89;102334.53;4727926;30;20403;-68
2023/06/23 09:37:08;;;;;;;2.00;1.90;;;25.60;99.90;;;26.03;60.10;102332.00;4718509;30;20073;-67
2023/06/23 09:39:40;;;;;;;2.28;2.17;;;25.80;99.90;;;26.06;59.00;102332.78;4718287;30;20056;-67
2023/06/23 09:42:12;;;;;;;2.00;1.90;;;25.90;99.90;;;26.30;59.09;102338.91;4721035;30;20136;-68
2023/06/23 09:44:43;;;;;;;1.88;1.80;;;26.10;99.90;;;26.45;59.57;102338.19;4718039;30;20056;-68
2023/06/23 09:47:11;;;;;;;;;;;26.30;99.90;;;26.31;58.40;102330.69;4726237;30;20060;-68
2023/06/23 09:49:42;;;;;;;2.25;2.15;;;26.20;99.90;;;26.37;58.58;102337.66;4718732;30;19927;-68
2023/06/23 09:52:16;;;;;;;2.40;2.30;;;26.10;99.90;;;26.28;56.24;102332.69;4726126;30;20416;-68
2023/06/23 09:54:44;;;;;;;2.65;2.45;;;26.10;99.90;;;26.07;57.01;102331.84;4725960;30;20119;-68
2023/06/23 09:57:15;;;;;;;1.85;1.83;;;25.80;99.90;;;26.32;57.81;102327.03;4727705;30;20056;-68
2023/06/23 09:59:46;;;;;;;2.15;2.05;;;26.00;99.90;;;26.57;56.38;102330.38;4725218;30;20049;-67
2023/06/23 10:02:20;;;;;;;;;;;26.30;99.90;;;26.58;53.80;102323.97;4710202;30;20057;-67
2023/06/23 10:04:51;;;;;;;2.10;2.00;;;26.40;99.90;;;26.58;52.66;102328.50;4726728;30;19926;-68
2023/06/23 10:07:22;;;;;;;1.83;1.83;;;26.40;99.90;;;26.77;53.46;102326.72;4726940;30;20077;-68
2023/06/23 10:09:52;;;;;;;2.15;2.05;;;26.60;99.90;;;26.56;53.41;102268.84;4725640;30;20049;-68
2023/06/23 10:12:33;;;;;;;1.88;1.83;;;26.70;99.90;;;26.64;54.86;102339.09;4726028;30;20071;-68
2023/06/23 10:15:02;;;;;;;1.58;1.58;;;26.40;99.90;;;26.74;54.03;102332.28;4726758;30;20415;-68
2023/06/23 10:17:30;;;;;;;2.22;2.13;;;26.60;99.90;;;26.93;53.80;102335.88;4725469;30;20079;-68
2023/06/23 10:20:01;;;;;;;2.03;1.95;;;26.70;99.90;;;27.05;51.84;102329.84;4725647;30;20067;-68
2023/06/23 10:22:29;;;;;;;1.77;1.77;;;26.80;99.90;;;27.10;53.25;102316.91;4727483;30;20061;-68
2023/06/23 10:25:00;;;;;;;2.00;1.90;;;27.00;99.90;;;27.31;53.39;102342.13;4724831;30;20084;-68
2023/06/23 10:27:30;;;;;;;2.15;2.05;;;27.10;99.90;;;27.22;51.93;102339.84;4725038;30;20075;-68
2023/06/23 10:29:59;;;;;;;2.05;1.95;;;27.00;99.90;;;27.04;51.22;102333.50;4727064;30;20415;-68